This is the latest recevied weather packets stored in our database for station/object DL7GAI-7. If no packets are shown the sender has not sent any weather packets the latest 10 day(s).
| Time | Temp. | Humidity | Pressure | Rain* | Wind** | Luminosity | Snow |
|---|---|---|---|---|---|---|---|
| 1777127789 | 22.22° C | 24% | 1014.7 hPa | 0 mm | 2.68 m/s, 270° | - | - |
| 1777126993 | 21.67° C | 22% | 1015.1 hPa | 0 mm | 3.13 m/s, 270° | - | - |
| 1777126184 | 21.67° C | 22% | 1015.1 hPa | 0 mm | 3.13 m/s, 270° | - | - |
| 1777125409 | 22.22° C | 23% | 1015.2 hPa | 0 mm | 1.79 m/s, 270° | - | - |
| 1777124583 | 22.22° C | 23% | 1015.2 hPa | 0 mm | 1.79 m/s, 270° | - | - |
| 1777123779 | 21.11° C | 23% | 1015.6 hPa | 0 mm | 1.79 m/s, 270° | - | - |
| 1777122929 | 21.11° C | 23% | 1015.6 hPa | 0 mm | 1.79 m/s, 270° | - | - |
| 1777122099 | 20.56° C | 31% | 1015.9 hPa | 0 mm | 2.68 m/s, 270° | - | - |
| 1777121224 | 20.56° C | 31% | 1015.9 hPa | 0 mm | 2.68 m/s, 270° | - | - |
| 1777120364 | 20.56° C | 34% | 1016.4 hPa | 0 mm | 2.24 m/s, 270° | - | - |
| 1777119533 | 20.56° C | 34% | 1016.4 hPa | 0 mm | 2.24 m/s, 270° | - | - |
| 1777118713 | 19.44° C | 33% | 1016.8 hPa | 0 mm | 1.34 m/s, 225° | - | - |
| 1777117972 | 19.44° C | 33% | 1016.8 hPa | 0 mm | 1.34 m/s, 225° | - | - |
| 1777117166 | 19.44° C | 33% | 1016.8 hPa | 0 mm | 1.34 m/s, 225° | - | - |
| 1777116369 | 18.33° C | 37% | 1017.2 hPa | 0 mm | 1.34 m/s, 225° | - | - |
| 1777115489 | 18.33° C | 37% | 1017.2 hPa | 0 mm | 1.34 m/s, 225° | - | - |
| 1777114709 | 17.22° C | 35% | 1017.7 hPa | 0 mm | 1.79 m/s, 270° | - | - |
| 1777113853 | 17.22° C | 35% | 1017.7 hPa | 0 mm | 1.79 m/s, 270° | - | - |
| 1777113009 | 17.22° C | 30% | 1017.7 hPa | 0 mm | 0.89 m/s, 270° | - | - |
| 1777112181 | 17.22° C | 30% | 1017.7 hPa | 0 mm | 0.89 m/s, 270° | - | - |
| 1777111334 | 15.56° C | 33% | 1018 hPa | 0 mm | 1.34 m/s, 180° | - | - |
| 1777110558 | 15.56° C | 33% | 1018 hPa | 0 mm | 1.34 m/s, 180° | - | - |
| 1777109801 | 15.56° C | 33% | 1018 hPa | 0 mm | 1.34 m/s, 180° | - | - |
| 1777108994 | 14.44° C | 39% | 1018.3 hPa | 0 mm | 0.89 m/s, 225° | - | - |
| 1777108208 | 14.44° C | 39% | 1018.3 hPa | 0 mm | 0.89 m/s, 225° | - | - |
* Rain latest hour (hover to see other rain measurements)
** Current wind speed in m/s (hover to see current wind gust speed)